Time;durP1;ratioP1;P1;durP2;ratioP2;P2;SDS_P1;SDS_P2;PMS_P1;PMS_P2;Temp;Humidity;BMP_temperature;BMP_pressure;BME280_temperature;BME280_humidity;BME280_pressure;Samples;Min_cycle;Max_cycle;Signal;HPM_P1;HPM_P2
2023/07/03 00:00:45;;;;;;;13.40;7.00;;;18.80;87.70;;;;;;5031940;28;20304;-72
2023/07/03 00:03:13;;;;;;;13.70;8.23;;;18.80;87.70;;;;;;5030816;28;20482;-71
2023/07/03 00:05:48;;;;;;;16.10;7.53;;;18.80;87.90;;;;;;5034121;28;20233;-70
2023/07/03 00:08:16;;;;;;;14.27;7.23;;;18.80;87.90;;;;;;5037438;28;20455;-70
2023/07/03 00:10:41;;;;;;;10.33;7.33;;;18.70;88.00;;;;;;5034679;28;20451;-70
2023/07/03 00:13:08;;;;;;;11.30;7.27;;;18.70;88.00;;;;;;5037806;28;20630;-71
2023/07/03 00:15:33;;;;;;;10.37;7.10;;;18.70;88.10;;;;;;5043552;28;20301;-70
2023/07/03 00:17:59;;;;;;;12.47;7.17;;;18.70;88.20;;;;;;5036841;28;20965;-72
2023/07/03 00:20:27;;;;;;;11.47;6.57;;;18.60;88.20;;;;;;5047102;28;20213;-70
2023/07/03 00:22:54;;;;;;;8.87;6.60;;;18.60;88.30;;;;;;5042165;28;20224;-71
2023/07/03 00:25:20;;;;;;;13.50;7.23;;;18.60;88.50;;;;;;5035116;28;20468;-70
2023/07/03 00:27:47;;;;;;;15.03;8.27;;;18.50;88.50;;;;;;5036028;28;21152;-70
2023/07/03 00:30:14;;;;;;;11.97;7.33;;;18.50;88.50;;;;;;5040838;28;20457;-73
2023/07/03 00:32:40;;;;;;;11.33;7.20;;;18.50;88.60;;;;;;5047386;28;20862;-70
2023/07/03 00:35:06;;;;;;;13.97;7.23;;;18.50;88.40;;;;;;5036854;28;20459;-70
2023/07/03 00:37:32;;;;;;;10.87;7.47;;;18.50;88.70;;;;;;5035188;28;20370;-72
2023/07/03 00:39:59;;;;;;;14.03;7.30;;;18.40;88.70;;;;;;5033600;28;20458;-70
2023/07/03 00:42:29;;;;;;;17.20;8.10;;;18.30;88.80;;;;;;5047595;28;20557;-70
2023/07/03 00:44:54;;;;;;;15.87;8.03;;;18.30;89.10;;;;;;5039183;28;20458;-70
2023/07/03 00:47:23;;;;;;;12.50;7.33;;;18.30;89.20;;;;;;5037697;28;20981;-71
2023/07/03 00:49:50;;;;;;;9.97;7.60;;;18.30;89.20;;;;;;5040961;28;20299;-71
2023/07/03 00:52:17;;;;;;;13.80;7.23;;;18.30;89.20;;;;;;5039830;28;20591;-71
2023/07/03 00:54:42;;;;;;;14.50;7.07;;;18.30;89.20;;;;;;5025838;28;20478;-70
2023/07/03 00:57:13;;;;;;;10.30;7.03;;;18.20;89.20;;;;;;5032599;28;20224;-71
2023/07/03 00:59:39;;;;;;;13.60;7.37;;;18.20;89.30;;;;;;5036683;28;20224;-70
2023/07/03 01:02:11;;;;;;;11.40;7.33;;;18.30;89.50;;;;;;5038267;28;20471;-69
2023/07/03 01:05:07;;;;;;;9.47;7.00;;;18.20;89.50;;;;;;5038138;28;20229;-70
2023/07/03 01:07:35;;;;;;;15.33;7.53;;;18.20;89.50;;;;;;5053316;28;20449;-71
2023/07/03 01:10:18;;;;;;;12.37;7.77;;;18.20;89.60;;;;;;5040832;28;20483;-71
2023/07/03 01:12:47;;;;;;;14.50;7.33;;;18.10;89.70;;;;;;5041217;28;20458;-70
2023/07/03 01:15:17;;;;;;;13.60;7.67;;;18.10;89.80;;;;;;5037294;28;20468;-71
2023/07/03 01:17:46;;;;;;;11.23;7.33;;;18.10;89.90;;;;;;5046812;28;20485;-70
2023/07/03 01:20:17;;;;;;;11.87;7.43;;;18.10;89.80;;;;;;5035477;28;20471;-70
2023/07/03 01:22:47;;;;;;;12.17;7.00;;;18.10;89.90;;;;;;5036249;28;20563;-72
2023/07/03 01:25:19;;;;;;;15.23;7.83;;;18.00;90.10;;;;;;5026453;28;21001;-71
2023/07/03 01:27:47;;;;;;;11.43;7.27;;;18.00;90.40;;;;;;5032507;28;20518;-71
2023/07/03 01:30:16;;;;;;;13.00;8.10;;;18.00;90.30;;;;;;5036568;28;20444;-73
2023/07/03 01:32:44;;;;;;;15.50;6.60;;;18.00;90.30;;;;;;5025684;28;20447;-71
2023/07/03 01:35:11;;;;;;;11.70;7.50;;;18.00;90.70;;;;;;5034904;28;20502;-71
2023/07/03 01:37:40;;;;;;;11.07;7.00;;;17.90;90.60;;;;;;5029137;28;20469;-70
2023/07/03 01:40:09;;;;;;;14.30;7.27;;;18.00;90.60;;;;;;5027729;28;20847;-70
2023/07/03 01:42:38;;;;;;;10.40;7.10;;;18.00;90.50;;;;;;5045329;28;20458;-71
2023/07/03 01:45:04;;;;;;;13.20;7.00;;;18.00;90.50;;;;;;5037836;28;20459;-69
2023/07/03 01:47:30;;;;;;;11.50;6.97;;;18.00;90.50;;;;;;5032803;28;21252;-70
2023/07/03 01:49:56;;;;;;;10.40;7.00;;;18.00;90.50;;;;;;5022837;28;20539;-71
2023/07/03 01:52:27;;;;;;;13.83;7.47;;;18.00;90.50;;;;;;5061299;28;20797;-71
2023/07/03 01:55:21;;;;;;;13.63;7.70;;;18.00;90.60;;;;;;5037580;28;20229;-70
2023/07/03 01:58:10;;;;;;;12.50;7.17;;;18.00;90.60;;;;;;5032552;28;20448;-70
2023/07/03 02:00:40;;;;;;;12.30;6.67;;;18.00;90.70;;;;;;5031551;28;20575;-73
2023/07/03 02:03:31;;;;;;;11.23;7.43;;;18.00;90.80;;;;;;5024830;28;20468;-70
2023/07/03 02:06:02;;;;;;;14.37;7.90;;;17.90;90.70;;;;;;5037370;28;20454;-70
2023/07/03 02:08:30;;;;;;;12.37;7.70;;;17.90;90.80;;;;;;5031440;28;20460;-70
2023/07/03 02:10:56;;;;;;;11.67;7.60;;;17.90;90.80;;;;;;5039223;28;20848;-70
2023/07/03 02:13:22;;;;;;;13.87;8.70;;;17.90;91.00;;;;;;5047304;28;20462;-70
2023/07/03 02:15:49;;;;;;;12.53;8.00;;;17.80;90.90;;;;;;5029706;28;20460;-70
2023/07/03 02:18:17;;;;;;;12.90;7.43;;;17.80;91.00;;;;;;5033180;28;20496;-70
2023/07/03 02:20:45;;;;;;;11.40;7.50;;;17.80;91.00;;;;;;5030742;28;20272;-70
2023/07/03 02:23:11;;;;;;;13.27;7.47;;;17.70;91.00;;;;;;5033475;28;20452;-70
2023/07/03 02:25:43;;;;;;;10.40;6.90;;;17.70;91.20;;;;;;5026466;28;20483;-70
2023/07/03 02:28:09;;;;;;;12.00;7.30;;;17.70;91.20;;;;;;5041385;28;20454;-69
2023/07/03 02:30:35;;;;;;;9.53;7.20;;;17.70;91.30;;;;;;5041218;28;20506;-70
2023/07/03 02:33:01;;;;;;;12.83;7.00;;;17.60;91.10;;;;;;5041738;28;20491;-70
2023/07/03 02:35:27;;;;;;;13.40;8.27;;;17.60;91.20;;;;;;5021544;28;20232;-70
2023/07/03 02:37:53;;;;;;;12.47;6.70;;;17.60;91.20;;;;;;5055638;28;20296;-70
2023/07/03 02:40:18;;;;;;;13.97;8.63;;;17.50;91.60;;;;;;5029589;28;21051;-70
2023/07/03 02:42:44;;;;;;;20.37;8.00;;;17.50;91.30;;;;;;5026051;28;20227;-71
2023/07/03 02:45:10;;;;;;;13.00;7.67;;;17.50;91.40;;;;;;5020053;28;20223;-69
2023/07/03 02:47:37;;;;;;;12.50;9.10;;;17.10;91.90;;;;;;5047426;28;20733;-69
2023/07/03 02:50:07;;;;;;;15.20;7.57;;;17.20;92.10;;;;;;5041161;28;20456;-70
2023/07/03 02:52:33;;;;;;;17.60;8.40;;;17.20;92.00;;;;;;5038861;28;20459;-70
2023/07/03 02:54:59;;;;;;;14.63;8.23;;;17.20;92.20;;;;;;5031497;28;20498;-70
2023/07/03 02:57:25;;;;;;;14.27;8.07;;;17.00;92.40;;;;;;5047239;28;20455;-70
2023/07/03 02:59:51;;;;;;;15.47;8.80;;;16.90;92.60;;;;;;5046628;28;20215;-70
2023/07/03 03:02:18;;;;;;;11.83;8.10;;;16.40;93.60;;;;;;5037187;28;20205;-70
2023/07/03 03:04:46;;;;;;;13.47;7.57;;;16.10;94.30;;;;;;5046494;28;20336;-71
2023/07/03 03:07:12;;;;;;;13.93;7.10;;;16.20;94.50;;;;;;5037294;28;20537;-70
2023/07/03 03:09:37;;;;;;;11.00;6.40;;;16.50;94.20;;;;;;5023186;28;20498;-70
2023/07/03 03:12:04;;;;;;;9.13;6.87;;;16.60;94.20;;;;;;5043843;28;20263;-70
2023/07/03 03:14:30;;;;;;;13.10;7.67;;;16.80;93.60;;;;;;5023594;28;20272;-70
2023/07/03 03:16:55;;;;;;;14.17;7.97;;;16.80;93.40;;;;;;5044913;28;20451;-69
2023/07/03 03:19:21;;;;;;;13.00;7.80;;;16.80;93.50;;;;;;5042541;28;20209;-69
2023/07/03 03:21:49;;;;;;;15.10;7.43;;;16.80;93.50;;;;;;5030090;28;20719;-70
2023/07/03 03:24:16;;;;;;;13.50;7.97;;;16.90;93.30;;;;;;5039130;28;20614;-71
2023/07/03 03:26:42;;;;;;;12.97;6.93;;;16.90;93.50;;;;;;5045520;28;20451;-70
2023/07/03 03:29:08;;;;;;;15.17;7.60;;;16.90;93.50;;;;;;5039661;28;21033;-69
2023/07/03 03:31:33;;;;;;;13.63;7.20;;;16.90;93.10;;;;;;5029423;28;20251;-72
2023/07/03 03:34:03;;;;;;;14.40;7.00;;;17.00;93.10;;;;;;5047794;28;20220;-69
2023/07/03 03:36:29;;;;;;;12.37;7.10;;;17.00;93.00;;;;;;5042055;28;20477;-70
2023/07/03 03:38:55;;;;;;;13.33;7.50;;;17.00;93.00;;;;;;5043385;28;20221;-70
2023/07/03 03:41:21;;;;;;;10.33;7.70;;;17.10;93.00;;;;;;5034453;28;20451;-70
2023/07/03 03:43:47;;;;;;;14.43;7.10;;;17.10;93.00;;;;;;5045019;28;20458;-70
2023/07/03 03:46:13;;;;;;;15.93;7.47;;;17.00;92.80;;;;;;5028939;28;20219;-70
2023/07/03 03:48:38;;;;;;;11.23;6.90;;;17.00;93.30;;;;;;5048166;28;20452;-69
2023/07/03 03:51:07;;;;;;;14.83;7.83;;;17.10;93.00;;;;;;5037530;28;20216;-69
2023/07/03 03:53:34;;;;;;;12.80;6.30;;;17.00;93.10;;;;;;5034754;28;20472;-70
2023/07/03 03:55:59;;;;;;;10.37;6.87;;;17.00;93.20;;;;;;5030079;28;20940;-70
2023/07/03 03:58:28;;;;;;;12.33;6.67;;;17.00;93.10;;;;;;5022439;28;20213;-70
2023/07/03 04:00:54;;;;;;;17.00;7.17;;;17.00;93.20;;;;;;5030237;28;20459;-70
2023/07/03 04:03:20;;;;;;;10.93;6.77;;;17.00;93.10;;;;;;5038468;28;20474;-70
2023/07/03 04:05:46;;;;;;;12.13;6.47;;;17.00;93.10;;;;;;5040760;28;20221;-70
2023/07/03 04:08:12;;;;;;;12.50;6.30;;;17.00;93.10;;;;;;5043199;28;20997;-70
2023/07/03 04:10:38;;;;;;;12.80;7.07;;;17.00;93.10;;;;;;5039966;28;20474;-70
2023/07/03 04:13:04;;;;;;;16.17;6.87;;;17.00;93.10;;;;;;5035196;28;20251;-72
2023/07/03 04:15:35;;;;;;;13.23;6.63;;;17.00;93.30;;;;;;5031071;28;20476;-70
2023/07/03 04:18:01;;;;;;;9.67;6.73;;;16.90;93.40;;;;;;5030417;28;20221;-73
2023/07/03 04:20:27;;;;;;;9.87;6.70;;;17.00;93.40;;;;;;5037479;28;20456;-71
2023/07/03 04:22:53;;;;;;;9.23;5.93;;;17.00;93.30;;;;;;5036858;28;20208;-71
2023/07/03 04:25:19;;;;;;;9.37;6.80;;;17.00;93.20;;;;;;5044614;28;20463;-70
2023/07/03 04:27:44;;;;;;;15.47;7.53;;;17.00;93.20;;;;;;5031971;28;20217;-70
2023/07/03 04:30:11;;;;;;;7.83;5.93;;;17.00;93.60;;;;;;5036221;28;20218;-69
2023/07/03 04:32:37;;;;;;;12.50;7.00;;;16.80;94.00;;;;;;5043812;28;20217;-70
2023/07/03 04:35:04;;;;;;;14.30;7.83;;;16.70;94.40;;;;;;5041832;28;20478;-71
2023/07/03 04:37:29;;;;;;;14.40;6.40;;;16.70;94.40;;;;;;5038107;28;20470;-70
2023/07/03 04:39:56;;;;;;;8.33;5.90;;;16.70;94.50;;;;;;5031924;28;20464;-70
2023/07/03 04:42:22;;;;;;;14.43;7.23;;;16.70;94.30;;;;;;5046307;28;20223;-70
2023/07/03 04:44:48;;;;;;;16.83;6.60;;;16.60;94.90;;;;;;5034867;28;20481;-70
2023/07/03 04:47:18;;;;;;;10.37;6.53;;;16.60;94.80;;;;;;5040752;28;20447;-70
2023/07/03 04:49:45;;;;;;;8.90;6.23;;;16.60;95.40;;;;;;5041475;28;20486;-70
2023/07/03 04:52:16;;;;;;;10.00;5.57;;;16.60;95.20;;;;;;5030556;28;20460;-70
2023/07/03 04:54:42;;;;;;;9.23;6.60;;;16.60;95.30;;;;;;5043348;28;20471;-70
2023/07/03 04:57:08;;;;;;;10.33;6.93;;;16.70;95.30;;;;;;5047049;28;21022;-69
2023/07/03 04:59:35;;;;;;;10.73;5.97;;;16.60;95.60;;;;;;5046532;28;20538;-71
2023/07/03 05:02:01;;;;;;;13.13;6.60;;;16.50;96.40;;;;;;5041299;28;20711;-70
2023/07/03 05:04:27;;;;;;;10.50;5.60;;;16.40;96.70;;;;;;5038447;28;20533;-71
2023/07/03 05:06:53;;;;;;;11.70;6.63;;;16.40;96.70;;;;;;5044683;28;20558;-70
2023/07/03 05:09:18;;;;;;;14.60;6.50;;;16.40;97.00;;;;;;5026611;28;20272;-71
2023/07/03 05:11:44;;;;;;;13.37;6.80;;;16.30;97.40;;;;;;5048893;28;20250;-71
2023/07/03 05:14:10;;;;;;;13.53;7.30;;;16.30;97.50;;;;;;5027506;28;20217;-70
2023/07/03 05:16:36;;;;;;;14.17;7.77;;;16.30;97.60;;;;;;5047092;28;20248;-69
2023/07/03 05:19:02;;;;;;;11.70;6.30;;;16.30;97.80;;;;;;5032765;28;20308;-71
2023/07/03 05:21:28;;;;;;;10.10;6.40;;;16.30;98.50;;;;;;5040225;28;20553;-70
2023/07/03 05:23:53;;;;;;;10.30;6.53;;;16.20;98.60;;;;;;5041293;28;20732;-70
2023/07/03 05:26:19;;;;;;;15.80;6.17;;;16.20;98.50;;;;;;5039545;28;20205;-70
2023/07/03 05:28:45;;;;;;;14.70;6.67;;;16.40;98.40;;;;;;5017597;28;20210;-73
2023/07/03 05:31:10;;;;;;;12.60;6.03;;;16.50;98.00;;;;;;5047453;28;20208;-70
2023/07/03 05:33:36;;;;;;;11.70;6.40;;;16.50;98.20;;;;;;5037054;28;20217;-70
2023/07/03 05:36:02;;;;;;;8.80;6.20;;;16.50;98.30;;;;;;5024026;28;20228;-70
2023/07/03 05:38:28;;;;;;;10.70;6.60;;;16.50;98.60;;;;;;5041791;28;20216;-70
2023/07/03 05:40:54;;;;;;;9.73;6.37;;;16.50;98.60;;;;;;5048186;28;20461;-71
2023/07/03 05:43:21;;;;;;;9.00;6.27;;;16.50;98.70;;;;;;5036825;28;20829;-71
2023/07/03 05:45:48;;;;;;;7.80;5.50;;;16.50;98.80;;;;;;5040914;28;20224;-71
2023/07/03 05:48:13;;;;;;;14.90;7.40;;;16.60;98.80;;;;;;5027598;28;20502;-70
2023/07/03 05:50:39;;;;;;;14.03;5.90;;;16.50;98.80;;;;;;5039394;28;20456;-71
2023/07/03 05:53:05;;;;;;;12.37;6.27;;;16.50;98.90;;;;;;5036391;28;20909;-70
2023/07/03 05:55:30;;;;;;;6.50;5.53;;;16.50;99.00;;;;;;5073429;28;20230;-71
2023/07/03 05:57:56;;;;;;;10.80;5.70;;;16.50;98.90;;;;;;5037679;28;20635;-70
2023/07/03 06:00:23;;;;;;;10.17;5.70;;;16.50;98.70;;;;;;5041683;28;20227;-70
2023/07/03 06:02:53;;;;;;;9.10;5.87;;;16.50;98.60;;;;;;5019502;28;20212;-70
2023/07/03 06:05:20;;;;;;;11.80;5.60;;;16.60;98.80;;;;;;5053922;28;20467;-70
2023/07/03 06:07:46;;;;;;;9.30;4.97;;;16.60;98.60;;;;;;5045024;28;20926;-70
2023/07/03 06:10:12;;;;;;;9.47;5.80;;;16.60;98.40;;;;;;5042419;28;20577;-70
2023/07/03 06:12:39;;;;;;;10.30;5.10;;;16.60;98.30;;;;;;5052321;28;20224;-70
2023/07/03 06:15:05;;;;;;;6.37;4.60;;;16.70;98.30;;;;;;5029436;28;20499;-70
2023/07/03 06:17:31;;;;;;;10.90;4.63;;;16.60;97.90;;;;;;5040402;28;20467;-70
2023/07/03 06:19:57;;;;;;;9.17;4.50;;;16.70;97.90;;;;;;5026358;28;20456;-71
2023/07/03 06:22:23;;;;;;;7.53;4.50;;;16.70;97.90;;;;;;5044171;28;20282;-70
2023/07/03 06:24:49;;;;;;;8.67;4.00;;;16.70;97.80;;;;;;5047384;28;20462;-69
2023/07/03 06:27:15;;;;;;;6.93;4.37;;;16.70;97.50;;;;;;5052630;28;20220;-70
2023/07/03 06:29:41;;;;;;;7.57;4.37;;;16.80;97.50;;;;;;5040344;28;20248;-69
2023/07/03 06:32:09;;;;;;;8.00;4.20;;;16.90;97.60;;;;;;5047119;28;20615;-70
2023/07/03 06:34:35;;;;;;;9.27;4.50;;;16.90;97.40;;;;;;5045544;28;20235;-70
2023/07/03 06:37:05;;;;;;;5.83;3.70;;;17.00;97.20;;;;;;5037376;28;20841;-71
2023/07/03 06:39:31;;;;;;;6.40;3.10;;;17.00;96.70;;;;;;5053924;28;20223;-70
2023/07/03 06:41:57;;;;;;;7.23;3.73;;;17.00;96.50;;;;;;5030345;28;20466;-71
2023/07/03 06:44:22;;;;;;;8.87;3.63;;;17.00;96.40;;;;;;5057440;28;20463;-70
2023/07/03 06:46:50;;;;;;;8.50;3.80;;;17.00;96.30;;;;;;5023647;28;20696;-71
2023/07/03 06:49:17;;;;;;;11.37;4.47;;;17.00;96.40;;;;;;5047727;28;20292;-71
2023/07/03 06:51:43;;;;;;;14.67;4.10;;;17.00;96.40;;;;;;5046383;28;20446;-71
2023/07/03 06:54:08;;;;;;;8.30;3.53;;;17.00;96.40;;;;;;5046065;28;20478;-70
2023/07/03 06:56:34;;;;;;;6.40;3.67;;;17.10;96.60;;;;;;5045781;28;20212;-72
2023/07/03 06:59:00;;;;;;;7.57;3.77;;;17.20;96.40;;;;;;5045214;28;20697;-70
2023/07/03 07:01:30;;;;;;;9.50;3.77;;;17.30;96.70;;;;;;5042684;28;20283;-70
2023/07/03 07:03:55;;;;;;;4.87;3.10;;;17.50;96.30;;;;;;5043798;28;20304;-70
2023/07/03 07:06:24;;;;;;;6.03;3.47;;;17.50;96.00;;;;;;5038998;28;20597;-70
2023/07/03 07:08:51;;;;;;;12.63;4.47;;;17.60;96.00;;;;;;5055026;28;20227;-69
2023/07/03 07:11:19;;;;;;;11.60;3.67;;;17.70;95.70;;;;;;5040686;28;21044;-69
2023/07/03 07:13:47;;;;;;;8.73;4.20;;;17.70;95.50;;;;;;5031596;28;20464;-70
2023/07/03 07:16:20;;;;;;;9.43;4.33;;;17.70;95.50;;;;;;5042003;28;20454;-70
2023/07/03 07:18:50;;;;;;;8.13;3.80;;;17.80;95.60;;;;;;5037552;28;20439;-70
2023/07/03 07:21:15;;;;;;;5.13;3.50;;;17.90;95.60;;;;;;5045033;28;20806;-68
2023/07/03 07:23:41;;;;;;;5.37;2.70;;;18.00;95.40;;;;;;5030667;28;20435;-70
2023/07/03 07:26:07;;;;;;;8.83;3.10;;;18.20;95.40;;;;;;5045638;28;20591;-68
2023/07/03 07:28:33;;;;;;;7.70;3.13;;;18.20;94.80;;;;;;5036355;28;20231;-70
2023/07/03 07:30:59;;;;;;;7.33;2.67;;;18.30;94.50;;;;;;5034933;28;20221;-71
2023/07/03 07:33:24;;;;;;;6.07;3.13;;;18.40;94.50;;;;;;5035837;28;20458;-69
2023/07/03 07:35:51;;;;;;;4.90;2.93;;;18.50;94.00;;;;;;5042359;28;20315;-71
2023/07/03 07:38:19;;;;;;;6.50;2.97;;;18.60;93.60;;;;;;5038909;28;20227;-70
2023/07/03 07:40:44;;;;;;;4.87;2.23;;;18.60;93.70;;;;;;5029728;28;20850;-70
2023/07/03 07:43:12;;;;;;;8.17;2.70;;;18.70;93.20;;;;;;5033211;28;20464;-69
2023/07/03 07:45:37;;;;;;;3.97;2.77;;;18.70;93.00;;;;;;5022083;28;20225;-69
2023/07/03 07:48:03;;;;;;;8.37;2.80;;;18.80;92.70;;;;;;5042920;28;20447;-68
2023/07/03 07:50:32;;;;;;;5.80;2.70;;;18.70;92.50;;;;;;5045694;28;20271;-71
2023/07/03 07:52:59;;;;;;;5.90;2.77;;;18.80;92.90;;;;;;5045449;28;20455;-70
2023/07/03 07:55:25;;;;;;;7.50;2.70;;;18.90;92.50;;;;;;5052067;28;20885;-70
2023/07/03 07:57:51;;;;;;;7.40;2.57;;;19.00;92.30;;;;;;5042846;28;20456;-70
2023/07/03 08:00:17;;;;;;;9.30;3.03;;;19.00;92.50;;;;;;5042294;28;20213;-69
2023/07/03 08:02:43;;;;;;;3.80;2.80;;;19.00;92.50;;;;;;5037954;28;20225;-70
2023/07/03 08:05:08;;;;;;;5.17;2.60;;;19.10;92.50;;;;;;5044880;28;20465;-69
2023/07/03 08:07:34;;;;;;;4.60;2.90;;;19.30;92.00;;;;;;5046023;28;20219;-69
2023/07/03 08:10:00;;;;;;;6.00;2.67;;;19.30;92.10;;;;;;5048199;28;20220;-70
2023/07/03 08:12:25;;;;;;;6.73;2.53;;;19.30;91.90;;;;;;5040057;28;20217;-71
2023/07/03 08:14:51;;;;;;;5.77;2.00;;;19.30;92.20;;;;;;5028078;28;20236;-70
2023/07/03 08:17:16;;;;;;;4.00;2.20;;;19.40;91.80;;;;;;5042179;28;20212;-70
2023/07/03 08:19:42;;;;;;;3.77;2.67;;;19.50;91.40;;;;;;5043256;28;20308;-70
2023/07/03 08:22:08;;;;;;;4.33;2.50;;;19.60;91.60;;;;;;5024676;28;20335;-70
2023/07/03 08:24:33;;;;;;;5.93;2.73;;;19.60;91.60;;;;;;5052802;28;20224;-71
2023/07/03 08:26:59;;;;;;;5.20;2.77;;;19.80;91.20;;;;;;5021189;28;20709;-69
2023/07/03 08:29:25;;;;;;;9.90;3.37;;;19.90;90.80;;;;;;5025634;28;20710;-70
2023/07/03 08:31:50;;;;;;;6.80;2.70;;;20.00;90.80;;;;;;5033176;28;20595;-70
2023/07/03 08:34:16;;;;;;;5.87;2.60;;;20.00;90.40;;;;;;5046229;28;20222;-70
2023/07/03 08:36:42;;;;;;;3.53;2.50;;;20.00;90.10;;;;;;5036297;28;20223;-71
2023/07/03 08:39:08;;;;;;;3.60;2.77;;;20.10;90.00;;;;;;5046201;28;20207;-70
2023/07/03 08:42:03;;;;;;;3.17;2.27;;;20.00;90.20;;;;;;5047682;28;20504;-70
2023/07/03 08:44:29;;;;;;;4.60;2.50;;;20.10;90.30;;;;;;5007779;28;20494;-70
2023/07/03 08:46:58;;;;;;;5.33;3.00;;;20.10;90.60;;;;;;5036052;28;20481;-69
2023/07/03 08:49:24;;;;;;;4.93;2.40;;;20.20;90.40;;;;;;5050439;28;20467;-69
2023/07/03 08:51:51;;;;;;;5.50;2.30;;;20.20;90.30;;;;;;5031133;28;20777;-70
2023/07/03 08:54:25;;;;;;;7.37;2.80;;;20.20;90.30;;;;;;5032249;28;20463;-69
2023/07/03 08:56:53;;;;;;;4.73;2.60;;;20.30;89.00;;;;;;5033901;28;20464;-70
2023/07/03 08:59:19;;;;;;;4.20;2.30;;;20.30;88.40;;;;;;5025676;28;20472;-70
2023/07/03 09:01:50;;;;;;;2.73;2.30;;;20.40;89.30;;;;;;5051649;28;20455;-69
2023/07/03 09:04:38;;;;;;;3.67;2.90;;;20.40;90.00;;;;;;5033053;28;20275;-69
2023/07/03 09:07:28;;;;;;;5.00;3.13;;;20.50;88.70;;;;;;5035337;28;20849;-69
2023/07/03 09:10:11;;;;;;;3.53;2.77;;;20.50;88.80;;;;;;5045007;28;20549;-70
2023/07/03 09:12:39;;;;;;;2.70;2.23;;;20.50;89.40;;;;;;5049715;28;20826;-70
2023/07/03 09:15:05;;;;;;;4.57;2.77;;;20.60;89.50;;;;;;5039145;28;20475;-69
2023/07/03 09:17:32;;;;;;;4.00;2.73;;;20.70;89.60;;;;;;5053245;28;20516;-69
2023/07/03 09:19:59;;;;;;;3.80;2.70;;;20.70;89.70;;;;;;5036618;28;20718;-69
2023/07/03 09:22:45;;;;;;;5.30;2.90;;;20.70;89.70;;;;;;5040267;28;20466;-70
2023/07/03 09:25:19;;;;;;;3.70;2.80;;;20.80;90.40;;;;;;5050796;28;20473;-69
2023/07/03 09:27:49;;;;;;;3.93;2.83;;;20.90;90.20;;;;;;5039926;28;20515;-70
2023/07/03 09:30:15;;;;;;;5.90;3.73;;;20.80;90.30;;;;;;5037664;28;21575;-69
2023/07/03 09:32:41;;;;;;;6.70;3.60;;;20.90;90.50;;;;;;5042343;28;20467;-70
2023/07/03 09:35:11;;;;;;;5.67;3.60;;;20.90;90.50;;;;;;5035108;28;20497;-68
2023/07/03 09:37:38;;;;;;;6.70;3.10;;;20.90;90.40;;;;;;5042208;28;20816;-70
2023/07/03 09:40:09;;;;;;;6.60;3.47;;;20.80;90.20;;;;;;5043566;28;20967;-71
2023/07/03 09:42:35;;;;;;;4.00;2.90;;;20.70;90.30;;;;;;5045116;28;20447;-70
2023/07/03 09:45:03;;;;;;;4.43;3.63;;;20.70;90.10;;;;;;5037621;28;20750;-70
2023/07/03 09:47:29;;;;;;;6.10;3.17;;;20.80;90.20;;;;;;5042511;28;20468;-70
2023/07/03 09:50:02;;;;;;;7.67;2.90;;;20.80;90.30;;;;;;5041463;28;20459;-70
2023/07/03 09:52:28;;;;;;;7.33;3.80;;;20.80;90.50;;;;;;5041898;28;20365;-70
2023/07/03 09:55:02;;;;;;;4.87;2.83;;;20.80;90.70;;;;;;5051295;28;21011;-70
2023/07/03 09:57:28;;;;;;;3.33;2.80;;;21.00;90.30;;;;;;5041265;28;20995;-70
2023/07/03 10:00:05;;;;;;;8.03;3.60;;;21.10;90.30;;;;;;5046977;28;20497;-70
2023/07/03 10:02:35;;;;;;;5.20;2.80;;;21.10;89.10;;;;;;5045287;28;21081;-70
2023/07/03 10:05:01;;;;;;;7.23;2.60;;;21.10;89.90;;;;;;5042073;28;20479;-70
2023/07/03 10:07:31;;;;;;;5.30;3.10;;;21.20;90.60;;;;;;5046798;28;20234;-71
2023/07/03 10:09:58;;;;;;;3.30;2.80;;;21.20;90.90;;;;;;5029256;28;20227;-71
2023/07/03 10:12:36;;;;;;;5.40;3.17;;;21.50;91.20;;;;;;5045599;28;20972;-70
2023/07/03 10:15:10;;;;;;;6.77;3.10;;;21.60;91.20;;;;;;5032760;28;20555;-69
2023/07/03 10:17:52;;;;;;;6.43;3.10;;;21.80;91.60;;;;;;5045776;28;20461;-72
2023/07/03 10:20:24;;;;;;;5.90;3.20;;;21.90;91.40;;;;;;5027964;28;20451;-72
2023/07/03 10:22:51;;;;;;;3.00;2.50;;;21.90;90.90;;;;;;5044323;28;20498;-70
2023/07/03 10:25:39;;;;;;;4.43;2.50;;;21.80;91.00;;;;;;5050959;28;20507;-70
2023/07/03 10:28:14;;;;;;;6.03;2.50;;;21.80;90.50;;;;;;5029352;28;20497;-70
2023/07/03 10:30:40;;;;;;;5.33;2.90;;;21.80;90.70;;;;;;5050630;28;20454;-70
2023/07/03 10:33:14;;;;;;;5.90;3.03;;;21.80;90.80;;;;;;5042807;28;20470;-70
2023/07/03 10:35:42;;;;;;;4.23;2.90;;;21.90;90.70;;;;;;5041335;28;20903;-70
2023/07/03 10:38:34;;;;;;;5.33;2.97;;;21.80;90.10;;;;;;5035813;28;20518;-70
2023/07/03 10:41:10;;;;;;;4.90;2.73;;;21.80;90.00;;;;;;5043270;28;20464;-70
2023/07/03 10:43:44;;;;;;;3.10;2.40;;;21.70;89.70;;;;;;5042839;28;20434;-70
2023/07/03 10:46:23;;;;;;;2.90;2.60;;;21.80;89.80;;;;;;5039850;28;20497;-70
2023/07/03 10:48:51;;;;;;;2.90;2.43;;;22.20;89.00;;;;;;5040223;28;20463;-69
2023/07/03 10:51:21;;;;;;;4.80;3.50;;;22.30;87.30;;;;;;5059313;28;20477;-69
2023/07/03 10:53:54;;;;;;;3.10;2.10;;;22.40;87.70;;;;;;5036008;28;20561;-69
2023/07/03 10:56:47;;;;;;;3.73;2.83;;;22.50;86.70;;;;;;5038880;28;20455;-70
2023/07/03 10:59:33;;;;;;;3.87;3.07;;;22.50;86.20;;;;;;5036505;28;20529;-69
2023/07/03 11:02:53;;;;;;;3.37;2.90;;;22.50;86.00;;;;;;5043889;28;20591;-70
2023/07/03 11:05:26;;;;;;;4.97;3.27;;;22.60;84.90;;;;;;4976672;28;21183;-71
2023/07/03 11:07:51;;;;;;;5.67;2.90;;;22.70;85.10;;;;;;5027022;28;20451;-70
2023/07/03 11:10:45;;;;;;;5.27;3.03;;;22.70;85.00;;;;;;5042399;28;20458;-70
2023/07/03 11:13:28;;;;;;;2.53;2.27;;;22.70;85.50;;;;;;5031197;28;20304;-70
2023/07/03 11:16:08;;;;;;;2.80;2.40;;;22.60;85.80;;;;;;5052170;28;21032;-70
2023/07/03 11:19:07;;;;;;;5.37;3.00;;;22.70;85.20;;;;;;5051385;28;20438;-70
2023/07/03 11:22:07;;;;;;;3.87;3.20;;;22.70;84.40;;;;;;5040664;28;20471;-71
2023/07/03 11:25:08;;;;;;;4.90;3.00;;;22.60;84.00;;;;;;5023761;28;20993;-69
2023/07/03 11:28:14;;;;;;;3.93;2.70;;;22.60;84.20;;;;;;5031566;28;20450;-69
2023/07/03 11:30:42;;;;;;;5.00;3.07;;;22.70;84.90;;;;;;5030960;28;20511;-71
2023/07/03 11:33:08;;;;;;;5.67;3.17;;;22.70;83.50;;;;;;5038709;28;20454;-69
2023/07/03 11:35:34;;;;;;;8.57;3.20;;;22.70;83.50;;;;;;5028244;28;20535;-69
2023/07/03 11:38:06;;;;;;;4.80;3.00;;;22.60;83.50;;;;;;5050355;28;20496;-69
2023/07/03 11:40:37;;;;;;;2.63;2.37;;;22.70;84.40;;;;;;5040355;28;20502;-70
2023/07/03 11:43:08;;;;;;;3.97;2.43;;;23.00;83.20;;;;;;5039370;28;20470;-69
2023/07/03 11:45:36;;;;;;;3.43;2.53;;;23.30;79.80;;;;;;5024798;28;20450;-70
2023/07/03 11:48:02;;;;;;;3.23;2.40;;;23.50;78.60;;;;;;5031165;28;20474;-71
2023/07/03 11:50:33;;;;;;;3.93;2.63;;;23.70;77.80;;;;;;5041431;28;20553;-70
2023/07/03 11:53:00;;;;;;;3.63;2.50;;;23.80;77.90;;;;;;5026912;28;20494;-71
2023/07/03 11:55:37;;;;;;;5.13;3.00;;;24.10;76.90;;;;;;5050780;28;20490;-70
2023/07/03 11:58:03;;;;;;;3.23;2.63;;;24.20;76.90;;;;;;5049408;28;20834;-69
2023/07/03 12:00:30;;;;;;;4.63;3.30;;;24.30;77.00;;;;;;5045538;28;20565;-70
2023/07/03 12:02:58;;;;;;;4.50;2.87;;;24.40;75.70;;;;;;5043211;28;20596;-70
2023/07/03 12:05:42;;;;;;;3.77;2.50;;;24.10;76.10;;;;;;5036333;28;20471;-69
2023/07/03 12:08:40;;;;;;;2.53;2.33;;;24.00;75.00;;;;;;5048993;28;20846;-70
2023/07/03 12:11:06;;;;;;;4.47;2.63;;;23.80;75.80;;;;;;5049665;28;20987;-70
2023/07/03 12:13:41;;;;;;;4.03;2.60;;;23.70;76.30;;;;;;5046686;28;20556;-70
2023/07/03 12:16:12;;;;;;;2.87;2.57;;;23.60;75.00;;;;;;5044746;28;20527;-70
2023/07/03 12:18:37;;;;;;;4.50;2.50;;;23.60;76.00;;;;;;5026131;28;20449;-70
2023/07/03 12:21:04;;;;;;;7.40;3.20;;;23.70;77.00;;;;;;5025741;28;20458;-69
2023/07/03 12:23:42;;;;;;;3.83;3.23;;;23.90;76.70;;;;;;5048497;28;20231;-70
2023/07/03 12:26:17;;;;;;;2.63;2.43;;;24.10;75.70;;;;;;5041665;28;20476;-70
2023/07/03 12:28:44;;;;;;;3.13;2.50;;;24.00;76.20;;;;;;5033109;28;20517;-70
2023/07/03 12:31:12;;;;;;;3.10;2.80;;;24.20;77.30;;;;;;5053540;28;20465;-70
2023/07/03 12:33:52;;;;;;;3.73;2.60;;;24.40;78.10;;;;;;5050926;28;20961;-70
2023/07/03 12:36:22;;;;;;;6.50;3.30;;;24.40;78.70;;;;;;5045906;28;21057;-70
2023/07/03 12:38:48;;;;;;;4.33;2.97;;;24.70;79.50;;;;;;5042409;28;20438;-70
2023/07/03 12:41:14;;;;;;;4.00;2.50;;;24.80;78.70;;;;;;5048216;28;20488;-69
2023/07/03 12:43:43;;;;;;;2.87;2.60;;;24.80;78.60;;;;;;5052902;28;20255;-70
2023/07/03 12:46:09;;;;;;;3.30;2.80;;;25.00;78.50;;;;;;5042747;28;20307;-69
2023/07/03 12:48:34;;;;;;;4.23;3.10;;;24.80;76.20;;;;;;5037713;28;20533;-70
2023/07/03 12:51:00;;;;;;;6.00;3.50;;;24.70;75.80;;;;;;5046768;28;20247;-70
2023/07/03 12:53:29;;;;;;;6.13;3.00;;;24.60;75.60;;;;;;5044291;28;20224;-70